sensor_id;sensor_type;location;lat;lon;timestamp;temperature;humidity
21502;DHT22;27639;48.674;9.242;2022-10-18T00:01:57;17.90;62.60
21502;DHT22;27639;48.674;9.242;2022-10-18T00:04:23;17.90;62.70
21502;DHT22;27639;48.674;9.242;2022-10-18T00:06:49;17.80;62.80
21502;DHT22;27639;48.674;9.242;2022-10-18T00:09:14;17.80;63.00
21502;DHT22;27639;48.674;9.242;2022-10-18T00:11:40;17.70;63.20
21502;DHT22;27639;48.674;9.242;2022-10-18T00:14:06;17.70;63.40
21502;DHT22;27639;48.674;9.242;2022-10-18T00:16:32;17.70;63.40
21502;DHT22;27639;48.674;9.242;2022-10-18T00:18:57;17.70;63.30
21502;DHT22;27639;48.674;9.242;2022-10-18T00:21:24;17.70;63.30
21502;DHT22;27639;48.674;9.242;2022-10-18T00:23:51;17.70;63.40
21502;DHT22;27639;48.674;9.242;2022-10-18T00:26:23;17.70;63.40
21502;DHT22;27639;48.674;9.242;2022-10-18T00:28:56;17.60;63.30
21502;DHT22;27639;48.674;9.242;2022-10-18T00:31:25;17.60;63.20
21502;DHT22;27639;48.674;9.242;2022-10-18T00:33:54;17.50;63.30
21502;DHT22;27639;48.674;9.242;2022-10-18T00:36:20;17.50;63.60
21502;DHT22;27639;48.674;9.242;2022-10-18T00:38:47;17.50;63.40
21502;DHT22;27639;48.674;9.242;2022-10-18T00:41:17;17.50;63.50
21502;DHT22;27639;48.674;9.242;2022-10-18T00:46:39;17.40;63.50
21502;DHT22;27639;48.674;9.242;2022-10-18T00:49:13;17.30;63.80
21502;DHT22;27639;48.674;9.242;2022-10-18T00:51:44;17.40;64.00
21502;DHT22;27639;48.674;9.242;2022-10-18T00:54:11;17.20;64.00
21502;DHT22;27639;48.674;9.242;2022-10-18T00:56:37;17.20;64.30
21502;DHT22;27639;48.674;9.242;2022-10-18T00:59:03;17.30;64.40
21502;DHT22;27639;48.674;9.242;2022-10-18T01:01:29;17.30;64.20
21502;DHT22;27639;48.674;9.242;2022-10-18T01:03:55;17.40;64.20
21502;DHT22;27639;48.674;9.242;2022-10-18T01:06:22;17.40;64.30
21502;DHT22;27639;48.674;9.242;2022-10-18T01:09:05;17.40;64.10
21502;DHT22;27639;48.674;9.242;2022-10-18T01:12:03;17.50;63.80
21502;DHT22;27639;48.674;9.242;2022-10-18T01:17:10;17.50;64.20
21502;DHT22;27639;48.674;9.242;2022-10-18T01:22:41;17.50;64.00
21502;DHT22;27639;48.674;9.242;2022-10-18T01:30:44;17.50;64.20
21502;DHT22;27639;48.674;9.242;2022-10-18T01:35:43;17.50;64.00
21502;DHT22;27639;48.674;9.242;2022-10-18T01:38:13;17.50;64.10
21502;DHT22;27639;48.674;9.242;2022-10-18T01:40:44;17.50;64.20
21502;DHT22;27639;48.674;9.242;2022-10-18T01:43:11;17.60;64.10
21502;DHT22;27639;48.674;9.242;2022-10-18T01:45:38;17.60;64.00
21502;DHT22;27639;48.674;9.242;2022-10-18T01:48:04;17.70;64.00
21502;DHT22;27639;48.674;9.242;2022-10-18T01:50:32;17.70;63.70
21502;DHT22;27639;48.674;9.242;2022-10-18T01:52:58;17.70;63.80
21502;DHT22;27639;48.674;9.242;2022-10-18T01:55:30;17.70;63.80
21502;DHT22;27639;48.674;9.242;2022-10-18T01:58:07;17.60;63.80
21502;DHT22;27639;48.674;9.242;2022-10-18T02:00:48;17.60;63.90
21502;DHT22;27639;48.674;9.242;2022-10-18T02:03:22;17.60;64.00
21502;DHT22;27639;48.674;9.242;2022-10-18T02:06:03;17.70;64.40
21502;DHT22;27639;48.674;9.242;2022-10-18T02:08:35;17.70;64.40
21502;DHT22;27639;48.674;9.242;2022-10-18T02:11:05;17.70;64.30
21502;DHT22;27639;48.674;9.242;2022-10-18T02:16:27;17.70;64.20
21502;DHT22;27639;48.674;9.242;2022-10-18T02:18:59;17.70;64.20
21502;DHT22;27639;48.674;9.242;2022-10-18T02:21:27;17.70;64.10
21502;DHT22;27639;48.674;9.242;2022-10-18T02:23:54;17.70;64.20
21502;DHT22;27639;48.674;9.242;2022-10-18T02:26:22;17.70;64.10
21502;DHT22;27639;48.674;9.242;2022-10-18T02:28:47;17.70;64.10
21502;DHT22;27639;48.674;9.242;2022-10-18T02:34:03;17.70;63.90
21502;DHT22;27639;48.674;9.242;2022-10-18T02:36:35;17.60;64.20
21502;DHT22;27639;48.674;9.242;2022-10-18T02:39:06;17.60;64.30
21502;DHT22;27639;48.674;9.242;2022-10-18T02:41:35;17.60;64.40
21502;DHT22;27639;48.674;9.242;2022-10-18T02:44:01;17.60;64.70
21502;DHT22;27639;48.674;9.242;2022-10-18T02:46:27;17.60;64.70
21502;DHT22;27639;48.674;9.242;2022-10-18T02:48:53;17.60;64.70
21502;DHT22;27639;48.674;9.242;2022-10-18T02:51:18;17.70;64.80
21502;DHT22;27639;48.674;9.242;2022-10-18T02:53:44;17.60;64.70
21502;DHT22;27639;48.674;9.242;2022-10-18T02:56:09;17.60;64.70
21502;DHT22;27639;48.674;9.242;2022-10-18T02:58:35;17.70;64.80
21502;DHT22;27639;48.674;9.242;2022-10-18T03:01:00;17.60;64.70
21502;DHT22;27639;48.674;9.242;2022-10-18T03:03:26;17.70;64.80
21502;DHT22;27639;48.674;9.242;2022-10-18T03:05:52;17.70;64.60
21502;DHT22;27639;48.674;9.242;2022-10-18T03:08:18;17.70;64.70
21502;DHT22;27639;48.674;9.242;2022-10-18T03:10:44;17.70;64.60
21502;DHT22;27639;48.674;9.242;2022-10-18T03:13:10;17.70;64.40
21502;DHT22;27639;48.674;9.242;2022-10-18T03:15:36;17.70;64.40
21502;DHT22;27639;48.674;9.242;2022-10-18T03:18:02;17.70;64.50
21502;DHT22;27639;48.674;9.242;2022-10-18T03:20:28;17.70;64.60
21502;DHT22;27639;48.674;9.242;2022-10-18T03:22:54;17.70;64.80
21502;DHT22;27639;48.674;9.242;2022-10-18T03:25:19;17.70;64.80
21502;DHT22;27639;48.674;9.242;2022-10-18T03:27:45;17.80;64.80
21502;DHT22;27639;48.674;9.242;2022-10-18T03:30:10;17.70;64.80
21502;DHT22;27639;48.674;9.242;2022-10-18T03:32:37;17.70;64.80
21502;DHT22;27639;48.674;9.242;2022-10-18T03:35:04;17.70;64.40
21502;DHT22;27639;48.674;9.242;2022-10-18T03:37:30;17.80;64.50
21502;DHT22;27639;48.674;9.242;2022-10-18T03:39:56;17.90;64.50
21502;DHT22;27639;48.674;9.242;2022-10-18T03:42:22;17.80;64.10
21502;DHT22;27639;48.674;9.242;2022-10-18T03:44:47;17.80;64.40
21502;DHT22;27639;48.674;9.242;2022-10-18T03:47:13;17.80;64.50
21502;DHT22;27639;48.674;9.242;2022-10-18T03:49:39;17.80;65.30
21502;DHT22;27639;48.674;9.242;2022-10-18T03:52:04;17.80;64.50
21502;DHT22;27639;48.674;9.242;2022-10-18T03:54:31;17.70;64.70
21502;DHT22;27639;48.674;9.242;2022-10-18T03:56:57;17.60;64.70
21502;DHT22;27639;48.674;9.242;2022-10-18T03:59:22;17.60;64.70
21502;DHT22;27639;48.674;9.242;2022-10-18T04:01:48;17.60;64.70
21502;DHT22;27639;48.674;9.242;2022-10-18T04:04:14;17.60;64.80
21502;DHT22;27639;48.674;9.242;2022-10-18T04:06:39;17.70;64.60
21502;DHT22;27639;48.674;9.242;2022-10-18T04:09:05;17.70;64.90
21502;DHT22;27639;48.674;9.242;2022-10-18T04:11:31;17.70;64.80
21502;DHT22;27639;48.674;9.242;2022-10-18T04:13:57;17.70;64.90
21502;DHT22;27639;48.674;9.242;2022-10-18T04:16:22;17.60;65.10
21502;DHT22;27639;48.674;9.242;2022-10-18T04:18:48;17.50;65.30
21502;DHT22;27639;48.674;9.242;2022-10-18T04:21:13;17.50;66.30
21502;DHT22;27639;48.674;9.242;2022-10-18T04:23:39;17.50;65.60
21502;DHT22;27639;48.674;9.242;2022-10-18T04:26:05;17.60;65.70
21502;DHT22;27639;48.674;9.242;2022-10-18T04:28:32;17.60;65.50
21502;DHT22;27639;48.674;9.242;2022-10-18T04:30:58;17.60;65.50
21502;DHT22;27639;48.674;9.242;2022-10-18T04:33:23;17.70;65.50
21502;DHT22;27639;48.674;9.242;2022-10-18T04:35:51;17.80;65.50
21502;DHT22;27639;48.674;9.242;2022-10-18T04:38:17;17.70;65.40
21502;DHT22;27639;48.674;9.242;2022-10-18T04:40:43;17.80;65.50
21502;DHT22;27639;48.674;9.242;2022-10-18T04:43:09;17.80;65.30
21502;DHT22;27639;48.674;9.242;2022-10-18T04:45:35;17.80;65.20
21502;DHT22;27639;48.674;9.242;2022-10-18T04:48:00;17.80;65.20
21502;DHT22;27639;48.674;9.242;2022-10-18T04:50:26;17.90;65.00
21502;DHT22;27639;48.674;9.242;2022-10-18T04:52:52;17.90;65.10
21502;DHT22;27639;48.674;9.242;2022-10-18T04:55:19;17.90;65.00
21502;DHT22;27639;48.674;9.242;2022-10-18T04:57:44;17.80;64.90
21502;DHT22;27639;48.674;9.242;2022-10-18T05:00:11;17.80;64.90
21502;DHT22;27639;48.674;9.242;2022-10-18T05:02:36;17.80;64.90
21502;DHT22;27639;48.674;9.242;2022-10-18T05:05:03;17.80;64.90
21502;DHT22;27639;48.674;9.242;2022-10-18T05:07:28;17.80;64.90
21502;DHT22;27639;48.674;9.242;2022-10-18T05:09:54;17.80;64.90
21502;DHT22;27639;48.674;9.242;2022-10-18T05:12:19;17.80;64.90
21502;DHT22;27639;48.674;9.242;2022-10-18T05:14:46;17.80;65.00
21502;DHT22;27639;48.674;9.242;2022-10-18T05:17:12;17.80;65.00
21502;DHT22;27639;48.674;9.242;2022-10-18T05:19:38;17.80;64.90
21502;DHT22;27639;48.674;9.242;2022-10-18T05:22:03;17.70;64.90
21502;DHT22;27639;48.674;9.242;2022-10-18T05:24:29;17.70;65.10
21502;DHT22;27639;48.674;9.242;2022-10-18T05:26:54;17.70;65.10
21502;DHT22;27639;48.674;9.242;2022-10-18T05:29:20;17.70;65.10
21502;DHT22;27639;48.674;9.242;2022-10-18T05:31:46;17.60;65.20
21502;DHT22;27639;48.674;9.242;2022-10-18T05:34:12;17.60;65.40
21502;DHT22;27639;48.674;9.242;2022-10-18T05:36:37;17.50;65.80
21502;DHT22;27639;48.674;9.242;2022-10-18T05:39:03;17.50;66.20
21502;DHT22;27639;48.674;9.242;2022-10-18T05:41:29;17.50;66.80
21502;DHT22;27639;48.674;9.242;2022-10-18T05:43:55;17.60;67.00
21502;DHT22;27639;48.674;9.242;2022-10-18T05:46:20;17.70;67.10
21502;DHT22;27639;48.674;9.242;2022-10-18T05:48:50;17.80;66.80
21502;DHT22;27639;48.674;9.242;2022-10-18T05:51:19;18.00;66.50
21502;DHT22;27639;48.674;9.242;2022-10-18T05:53:44;18.10;66.10
21502;DHT22;27639;48.674;9.242;2022-10-18T05:56:10;18.20;65.30
21502;DHT22;27639;48.674;9.242;2022-10-18T05:58:36;18.30;65.30
21502;DHT22;27639;48.674;9.242;2022-10-18T06:01:03;18.30;65.00
21502;DHT22;27639;48.674;9.242;2022-10-18T06:03:29;18.30;64.90
21502;DHT22;27639;48.674;9.242;2022-10-18T06:06:14;18.30;64.60
21502;DHT22;27639;48.674;9.242;2022-10-18T06:08:41;18.20;64.40
21502;DHT22;27639;48.674;9.242;2022-10-18T06:13:32;18.10;64.60
21502;DHT22;27639;48.674;9.242;2022-10-18T06:15:58;18.10;64.70
21502;DHT22;27639;48.674;9.242;2022-10-18T06:18:23;18.10;64.80
21502;DHT22;27639;48.674;9.242;2022-10-18T06:20:54;18.10;64.90
21502;DHT22;27639;48.674;9.242;2022-10-18T06:23:20;18.10;65.00
21502;DHT22;27639;48.674;9.242;2022-10-18T06:25:45;18.10;65.10
21502;DHT22;27639;48.674;9.242;2022-10-18T06:28:11;18.00;65.20
21502;DHT22;27639;48.674;9.242;2022-10-18T06:30:36;18.10;65.10
21502;DHT22;27639;48.674;9.242;2022-10-18T06:33:02;18.10;65.10
21502;DHT22;27639;48.674;9.242;2022-10-18T06:35:27;18.20;65.10
21502;DHT22;27639;48.674;9.242;2022-10-18T06:37:53;18.20;65.10
21502;DHT22;27639;48.674;9.242;2022-10-18T06:40:19;18.20;65.00
21502;DHT22;27639;48.674;9.242;2022-10-18T06:42:44;18.20;65.50
21502;DHT22;27639;48.674;9.242;2022-10-18T06:45:11;18.20;65.00
21502;DHT22;27639;48.674;9.242;2022-10-18T06:47:37;18.20;65.20
21502;DHT22;27639;48.674;9.242;2022-10-18T06:50:02;18.20;65.30
21502;DHT22;27639;48.674;9.242;2022-10-18T06:52:28;18.20;65.50
21502;DHT22;27639;48.674;9.242;2022-10-18T06:54:53;18.30;65.40
21502;DHT22;27639;48.674;9.242;2022-10-18T06:57:20;18.30;65.40
21502;DHT22;27639;48.674;9.242;2022-10-18T06:59:45;18.40;65.20
21502;DHT22;27639;48.674;9.242;2022-10-18T07:02:13;18.40;65.10
21502;DHT22;27639;48.674;9.242;2022-10-18T07:04:39;18.50;65.20
21502;DHT22;27639;48.674;9.242;2022-10-18T07:07:05;18.50;65.10
21502;DHT22;27639;48.674;9.242;2022-10-18T07:09:30;18.50;65.10
21502;DHT22;27639;48.674;9.242;2022-10-18T07:11:56;18.60;65.00
21502;DHT22;27639;48.674;9.242;2022-10-18T07:14:21;18.70;65.00
21502;DHT22;27639;48.674;9.242;2022-10-18T07:16:47;18.70;65.00
21502;DHT22;27639;48.674;9.242;2022-10-18T07:19:12;18.70;65.20
21502;DHT22;27639;48.674;9.242;2022-10-18T07:21:39;18.80;65.50
21502;DHT22;27639;48.674;9.242;2022-10-18T07:24:05;18.80;65.50
21502;DHT22;27639;48.674;9.242;2022-10-18T07:26:33;18.90;65.40
21502;DHT22;27639;48.674;9.242;2022-10-18T07:29:00;19.00;65.50
21502;DHT22;27639;48.674;9.242;2022-10-18T07:31:27;19.00;65.70
21502;DHT22;27639;48.674;9.242;2022-10-18T07:33:53;19.00;65.70
21502;DHT22;27639;48.674;9.242;2022-10-18T07:36:19;19.10;65.60
21502;DHT22;27639;48.674;9.242;2022-10-18T07:38:46;19.20;66.00
21502;DHT22;27639;48.674;9.242;2022-10-18T07:41:13;19.20;65.90
21502;DHT22;27639;48.674;9.242;2022-10-18T07:43:46;19.20;65.80
21502;DHT22;27639;48.674;9.242;2022-10-18T07:46:13;19.30;65.80
21502;DHT22;27639;48.674;9.242;2022-10-18T07:48:39;19.40;66.10
21502;DHT22;27639;48.674;9.242;2022-10-18T07:51:05;19.40;66.00
21502;DHT22;27639;48.674;9.242;2022-10-18T07:53:30;19.50;65.90
21502;DHT22;27639;48.674;9.242;2022-10-18T07:55:58;19.50;66.20
21502;DHT22;27639;48.674;9.242;2022-10-18T07:58:24;19.60;66.30
21502;DHT22;27639;48.674;9.242;2022-10-18T08:00:50;19.60;66.20
21502;DHT22;27639;48.674;9.242;2022-10-18T08:03:15;19.70;66.20
21502;DHT22;27639;48.674;9.242;2022-10-18T08:05:41;19.80;66.20
21502;DHT22;27639;48.674;9.242;2022-10-18T08:08:06;19.80;66.10
21502;DHT22;27639;48.674;9.242;2022-10-18T08:10:33;20.00;66.20
21502;DHT22;27639;48.674;9.242;2022-10-18T08:12:59;20.00;66.10
21502;DHT22;27639;48.674;9.242;2022-10-18T08:15:25;20.10;66.20
21502;DHT22;27639;48.674;9.242;2022-10-18T08:17:51;20.20;66.40
21502;DHT22;27639;48.674;9.242;2022-10-18T08:20:17;20.20;66.50
21502;DHT22;27639;48.674;9.242;2022-10-18T08:22:42;20.30;66.50
21502;DHT22;27639;48.674;9.242;2022-10-18T08:25:08;20.40;66.50
21502;DHT22;27639;48.674;9.242;2022-10-18T08:27:33;20.50;66.60
21502;DHT22;27639;48.674;9.242;2022-10-18T08:29:59;20.50;66.60
21502;DHT22;27639;48.674;9.242;2022-10-18T08:32:26;20.60;67.00
21502;DHT22;27639;48.674;9.242;2022-10-18T08:34:53;20.70;67.00
21502;DHT22;27639;48.674;9.242;2022-10-18T08:37:18;20.70;66.70
21502;DHT22;27639;48.674;9.242;2022-10-18T08:39:44;20.70;66.60
21502;DHT22;27639;48.674;9.242;2022-10-18T08:44:51;20.80;66.50
21502;DHT22;27639;48.674;9.242;2022-10-18T08:47:35;20.80;66.50
21502;DHT22;27639;48.674;9.242;2022-10-18T08:50:17;20.90;66.30
21502;DHT22;27639;48.674;9.242;2022-10-18T08:55:41;21.00;66.40
21502;DHT22;27639;48.674;9.242;2022-10-18T08:58:23;21.10;66.10
21502;DHT22;27639;48.674;9.242;2022-10-18T09:01:19;21.20;65.50
21502;DHT22;27639;48.674;9.242;2022-10-18T09:06:43;21.40;65.40
21502;DHT22;27639;48.674;9.242;2022-10-18T09:11:45;21.60;64.50
21502;DHT22;27639;48.674;9.242;2022-10-18T09:17:27;21.80;63.80
21502;DHT22;27639;48.674;9.242;2022-10-18T09:22:55;21.80;62.60
21502;DHT22;27639;48.674;9.242;2022-10-18T09:30:35;22.00;61.60
21502;DHT22;27639;48.674;9.242;2022-10-18T09:33:11;22.10;62.30
21502;DHT22;27639;48.674;9.242;2022-10-18T09:35:58;22.00;60.90
21502;DHT22;27639;48.674;9.242;2022-10-18T09:38:27;22.10;61.00
21502;DHT22;27639;48.674;9.242;2022-10-18T09:44:29;22.20;60.90
21502;DHT22;27639;48.674;9.242;2022-10-18T09:49:43;22.30;61.00
21502;DHT22;27639;48.674;9.242;2022-10-18T09:52:14;22.40;60.40
21502;DHT22;27639;48.674;9.242;2022-10-18T09:54:46;22.40;60.00
21502;DHT22;27639;48.674;9.242;2022-10-18T09:59:49;22.60;60.00
21502;DHT22;27639;48.674;9.242;2022-10-18T10:02:22;22.70;60.00
21502;DHT22;27639;48.674;9.242;2022-10-18T10:04:49;22.70;59.40
21502;DHT22;27639;48.674;9.242;2022-10-18T10:07:20;22.90;59.50
21502;DHT22;27639;48.674;9.242;2022-10-18T10:09:58;23.00;59.30
21502;DHT22;27639;48.674;9.242;2022-10-18T10:12:38;23.20;59.30
21502;DHT22;27639;48.674;9.242;2022-10-18T10:18:00;23.40;58.20
21502;DHT22;27639;48.674;9.242;2022-10-18T10:20:41;23.50;58.10
21502;DHT22;27639;48.674;9.242;2022-10-18T10:23:14;23.60;57.80
21502;DHT22;27639;48.674;9.242;2022-10-18T10:25:41;23.60;57.70
21502;DHT22;27639;48.674;9.242;2022-10-18T10:28:16;23.70;57.10
21502;DHT22;27639;48.674;9.242;2022-10-18T10:30:42;23.80;56.70
21502;DHT22;27639;48.674;9.242;2022-10-18T10:33:35;24.00;56.70
21502;DHT22;27639;48.674;9.242;2022-10-18T10:36:04;24.00;56.10
21502;DHT22;27639;48.674;9.242;2022-10-18T10:38:31;24.00;56.10
21502;DHT22;27639;48.674;9.242;2022-10-18T10:40:57;24.00;55.90
21502;DHT22;27639;48.674;9.242;2022-10-18T10:43:31;23.90;55.70
21502;DHT22;27639;48.674;9.242;2022-10-18T10:46:05;23.90;55.70
21502;DHT22;27639;48.674;9.242;2022-10-18T10:48:55;23.70;55.90
21502;DHT22;27639;48.674;9.242;2022-10-18T10:51:34;23.70;55.80
21502;DHT22;27639;48.674;9.242;2022-10-18T10:56:59;23.70;56.10
21502;DHT22;27639;48.674;9.242;2022-10-18T10:59:29;23.90;55.90
21502;DHT22;27639;48.674;9.242;2022-10-18T11:04:48;24.00;56.30
21502;DHT22;27639;48.674;9.242;2022-10-18T11:07:39;24.00;55.90
21502;DHT22;27639;48.674;9.242;2022-10-18T11:12:45;24.20;56.40
21502;DHT22;27639;48.674;9.242;2022-10-18T11:15:19;24.40;56.20
21502;DHT22;27639;48.674;9.242;2022-10-18T11:18:03;24.60;56.00
21502;DHT22;27639;48.674;9.242;2022-10-18T11:23:37;25.00;56.20
21502;DHT22;27639;48.674;9.242;2022-10-18T11:28:46;25.40;55.00
21502;DHT22;27639;48.674;9.242;2022-10-18T11:31:40;25.50;54.50
21502;DHT22;27639;48.674;9.242;2022-10-18T11:47:53;25.50;53.30
21502;DHT22;27639;48.674;9.242;2022-10-18T12:01:38;25.00;53.60
21502;DHT22;27639;48.674;9.242;2022-10-18T12:04:14;25.00;53.90
21502;DHT22;27639;48.674;9.242;2022-10-18T12:06:46;24.80;54.00
21502;DHT22;27639;48.674;9.242;2022-10-18T12:09:31;24.80;54.20
21502;DHT22;27639;48.674;9.242;2022-10-18T12:12:08;24.80;54.20
21502;DHT22;27639;48.674;9.242;2022-10-18T12:14:48;24.80;54.40
21502;DHT22;27639;48.674;9.242;2022-10-18T12:17:33;24.70;55.30
21502;DHT22;27639;48.674;9.242;2022-10-18T12:20:06;24.70;54.50
21502;DHT22;27639;48.674;9.242;2022-10-18T12:22:36;24.70;54.80
21502;DHT22;27639;48.674;9.242;2022-10-18T12:25:03;24.70;54.50
21502;DHT22;27639;48.674;9.242;2022-10-18T12:27:37;24.70;54.50
21502;DHT22;27639;48.674;9.242;2022-10-18T12:30:17;24.60;54.70
21502;DHT22;27639;48.674;9.242;2022-10-18T12:32:45;24.60;54.70
21502;DHT22;27639;48.674;9.242;2022-10-18T12:35:14;24.60;54.70
21502;DHT22;27639;48.674;9.242;2022-10-18T12:40:48;24.70;54.50
21502;DHT22;27639;48.674;9.242;2022-10-18T12:43:33;24.70;54.70
21502;DHT22;27639;48.674;9.242;2022-10-18T12:46:04;24.70;54.70
21502;DHT22;27639;48.674;9.242;2022-10-18T12:48:39;24.70;54.70
21502;DHT22;27639;48.674;9.242;2022-10-18T12:53:43;24.80;54.60
21502;DHT22;27639;48.674;9.242;2022-10-18T13:09:27;25.10;54.20
21502;DHT22;27639;48.674;9.242;2022-10-18T13:12:00;25.20;53.60
21502;DHT22;27639;48.674;9.242;2022-10-18T13:15:05;25.40;53.60
21502;DHT22;27639;48.674;9.242;2022-10-18T13:17:49;25.40;52.80
21502;DHT22;27639;48.674;9.242;2022-10-18T13:23:16;25.50;52.80
21502;DHT22;27639;48.674;9.242;2022-10-18T13:26:13;25.50;53.10
21502;DHT22;27639;48.674;9.242;2022-10-18T13:28:45;25.50;52.80
21502;DHT22;27639;48.674;9.242;2022-10-18T13:39:36;25.40;53.10
21502;DHT22;27639;48.674;9.242;2022-10-18T13:44:33;25.30;53.10
21502;DHT22;27639;48.674;9.242;2022-10-18T13:49:53;25.20;53.40
21502;DHT22;27639;48.674;9.242;2022-10-18T13:55:32;25.00;53.60
21502;DHT22;27639;48.674;9.242;2022-10-18T13:58:35;25.00;53.90
21502;DHT22;27639;48.674;9.242;2022-10-18T14:06:49;24.80;54.40
21502;DHT22;27639;48.674;9.242;2022-10-18T14:09:28;24.80;54.80
21502;DHT22;27639;48.674;9.242;2022-10-18T14:12:02;24.70;54.80
21502;DHT22;27639;48.674;9.242;2022-10-18T14:14:55;24.70;54.80
21502;DHT22;27639;48.674;9.242;2022-10-18T14:17:35;24.70;54.70
21502;DHT22;27639;48.674;9.242;2022-10-18T14:25:25;24.60;54.30
21502;DHT22;27639;48.674;9.242;2022-10-18T14:30:50;24.50;54.60
21502;DHT22;27639;48.674;9.242;2022-10-18T14:33:42;24.50;54.60
21502;DHT22;27639;48.674;9.242;2022-10-18T14:36:22;24.50;54.60
21502;DHT22;27639;48.674;9.242;2022-10-18T14:41:25;24.50;54.70
21502;DHT22;27639;48.674;9.242;2022-10-18T14:43:52;24.50;54.80
21502;DHT22;27639;48.674;9.242;2022-10-18T14:46:25;24.50;54.70
21502;DHT22;27639;48.674;9.242;2022-10-18T14:49:03;24.50;54.70
21502;DHT22;27639;48.674;9.242;2022-10-18T14:51:33;24.50;54.50
21502;DHT22;27639;48.674;9.242;2022-10-18T14:54:00;24.40;54.30
21502;DHT22;27639;48.674;9.242;2022-10-18T14:56:30;24.40;54.50
21502;DHT22;27639;48.674;9.242;2022-10-18T14:59:00;24.40;54.50
21502;DHT22;27639;48.674;9.242;2022-10-18T15:01:29;24.40;54.50
21502;DHT22;27639;48.674;9.242;2022-10-18T15:03:59;24.40;54.50
21502;DHT22;27639;48.674;9.242;2022-10-18T15:06:26;24.40;54.50
21502;DHT22;27639;48.674;9.242;2022-10-18T15:08:54;24.40;54.90
21502;DHT22;27639;48.674;9.242;2022-10-18T15:11:21;24.40;55.00
21502;DHT22;27639;48.674;9.242;2022-10-18T15:13:56;24.30;55.10
21502;DHT22;27639;48.674;9.242;2022-10-18T15:16:26;24.30;55.20
21502;DHT22;27639;48.674;9.242;2022-10-18T15:19:07;24.20;55.50
21502;DHT22;27639;48.674;9.242;2022-10-18T15:21:57;24.20;55.60
21502;DHT22;27639;48.674;9.242;2022-10-18T15:26:53;24.10;56.10
21502;DHT22;27639;48.674;9.242;2022-10-18T15:29:19;24.10;56.20
21502;DHT22;27639;48.674;9.242;2022-10-18T15:31:47;24.10;56.40
21502;DHT22;27639;48.674;9.242;2022-10-18T15:34:23;24.00;56.30
21502;DHT22;27639;48.674;9.242;2022-10-18T15:36:50;24.00;56.50
21502;DHT22;27639;48.674;9.242;2022-10-18T15:39:28;24.00;56.50
21502;DHT22;27639;48.674;9.242;2022-10-18T15:42:00;23.90;56.60
21502;DHT22;27639;48.674;9.242;2022-10-18T15:44:47;23.90;56.80
21502;DHT22;27639;48.674;9.242;2022-10-18T15:49:50;23.80;57.10
21502;DHT22;27639;48.674;9.242;2022-10-18T15:52:41;23.80;57.20
21502;DHT22;27639;48.674;9.242;2022-10-18T15:58:01;23.70;57.20
21502;DHT22;27639;48.674;9.242;2022-10-18T16:00:26;23.70;57.60
21502;DHT22;27639;48.674;9.242;2022-10-18T16:02:52;23.70;57.70
21502;DHT22;27639;48.674;9.242;2022-10-18T16:05:17;23.70;57.80
21502;DHT22;27639;48.674;9.242;2022-10-18T16:07:50;23.60;57.70
21502;DHT22;27639;48.674;9.242;2022-10-18T16:10:15;23.70;57.70
21502;DHT22;27639;48.674;9.242;2022-10-18T16:12:41;23.70;57.70
21502;DHT22;27639;48.674;9.242;2022-10-18T16:15:07;23.60;57.70
21502;DHT22;27639;48.674;9.242;2022-10-18T16:17:33;23.60;57.70
21502;DHT22;27639;48.674;9.242;2022-10-18T16:19:59;23.60;57.80
21502;DHT22;27639;48.674;9.242;2022-10-18T16:22:24;23.60;57.80
21502;DHT22;27639;48.674;9.242;2022-10-18T16:24:50;23.60;57.90
21502;DHT22;27639;48.674;9.242;2022-10-18T16:27:17;23.60;58.10
21502;DHT22;27639;48.674;9.242;2022-10-18T16:29:42;23.60;58.10
21502;DHT22;27639;48.674;9.242;2022-10-18T16:32:08;23.60;58.10
21502;DHT22;27639;48.674;9.242;2022-10-18T16:34:33;23.60;58.00
21502;DHT22;27639;48.674;9.242;2022-10-18T16:36:59;23.60;58.10
21502;DHT22;27639;48.674;9.242;2022-10-18T16:39:25;23.50;58.00
21502;DHT22;27639;48.674;9.242;2022-10-18T16:41:51;23.50;58.20
21502;DHT22;27639;48.674;9.242;2022-10-18T16:44:17;23.40;58.40
21502;DHT22;27639;48.674;9.242;2022-10-18T16:46:44;23.40;58.50
21502;DHT22;27639;48.674;9.242;2022-10-18T16:49:18;23.40;58.70
21502;DHT22;27639;48.674;9.242;2022-10-18T16:51:44;23.40;58.60
21502;DHT22;27639;48.674;9.242;2022-10-18T16:54:09;23.40;58.70
21502;DHT22;27639;48.674;9.242;2022-10-18T16:56:35;23.30;58.70
21502;DHT22;27639;48.674;9.242;2022-10-18T16:59:01;23.30;59.00
21502;DHT22;27639;48.674;9.242;2022-10-18T17:01:26;23.20;58.90
21502;DHT22;27639;48.674;9.242;2022-10-18T17:03:52;23.20;59.00
21502;DHT22;27639;48.674;9.242;2022-10-18T17:06:20;23.20;59.00
21502;DHT22;27639;48.674;9.242;2022-10-18T17:08:47;23.20;59.10
21502;DHT22;27639;48.674;9.242;2022-10-18T17:11:14;23.10;59.20
21502;DHT22;27639;48.674;9.242;2022-10-18T17:13:40;23.10;59.20
21502;DHT22;27639;48.674;9.242;2022-10-18T17:16:08;23.10;59.30
21502;DHT22;27639;48.674;9.242;2022-10-18T17:18:38;23.00;59.20
21502;DHT22;27639;48.674;9.242;2022-10-18T17:21:03;23.00;59.30
21502;DHT22;27639;48.674;9.242;2022-10-18T17:23:29;23.00;59.20
21502;DHT22;27639;48.674;9.242;2022-10-18T17:25:55;23.00;59.30
21502;DHT22;27639;48.674;9.242;2022-10-18T17:28:21;23.00;59.30
21502;DHT22;27639;48.674;9.242;2022-10-18T17:30:46;23.00;59.30
21502;DHT22;27639;48.674;9.242;2022-10-18T17:33:13;23.00;59.30
21502;DHT22;27639;48.674;9.242;2022-10-18T17:35:39;22.90;59.30
21502;DHT22;27639;48.674;9.242;2022-10-18T17:38:06;22.90;59.40
21502;DHT22;27639;48.674;9.242;2022-10-18T17:40:32;22.80;59.40
21502;DHT22;27639;48.674;9.242;2022-10-18T17:42:58;22.80;59.60
21502;DHT22;27639;48.674;9.242;2022-10-18T17:45:24;22.70;59.60
21502;DHT22;27639;48.674;9.242;2022-10-18T17:47:50;22.70;59.70
21502;DHT22;27639;48.674;9.242;2022-10-18T17:50:16;22.60;59.80
21502;DHT22;27639;48.674;9.242;2022-10-18T17:52:44;22.60;60.40
21502;DHT22;27639;48.674;9.242;2022-10-18T17:55:10;22.60;59.80
21502;DHT22;27639;48.674;9.242;2022-10-18T17:57:37;22.50;59.80
21502;DHT22;27639;48.674;9.242;2022-10-18T18:00:04;22.40;59.90
21502;DHT22;27639;48.674;9.242;2022-10-18T18:02:32;22.30;60.00
21502;DHT22;27639;48.674;9.242;2022-10-18T18:04:57;22.20;60.20
21502;DHT22;27639;48.674;9.242;2022-10-18T18:07:23;22.20;60.20
21502;DHT22;27639;48.674;9.242;2022-10-18T18:09:48;22.20;60.20
21502;DHT22;27639;48.674;9.242;2022-10-18T18:12:14;22.10;60.10
21502;DHT22;27639;48.674;9.242;2022-10-18T18:14:39;22.10;60.60
21502;DHT22;27639;48.674;9.242;2022-10-18T18:17:05;22.00;60.70
21502;DHT22;27639;48.674;9.242;2022-10-18T18:19:30;21.90;60.90
21502;DHT22;27639;48.674;9.242;2022-10-18T18:21:56;21.80;61.10
21502;DHT22;27639;48.674;9.242;2022-10-18T18:24:23;21.80;61.40